Methuen, MA

9:48 PM EST on December 24, 2014 (GMT -0500)
APRSWXNET Methuen MA US | Change Station
CLOSE
Current Station
Personal Weather Station
Location: Methuen, MA
Elevation: 114 ft
Nearby Weather Stations
Active Advisory: Areal Flood Watch

Elev 114 ft 42.73 °N, 71.20 °W | Updated 50 minutes ago

Light Rain
Light Rain Mist
41.0 °F
Feels Like 41.0 °F
N
1.0
Wind Variable Wind from NNE
Gusts 2.0 mph

Today
High -- | Low -- °F
--% Chance of Precip.
Yesterday
High -- | Low -- °F
Precip. -- in
7:13 AM 4:15 PM
Waxing Crescent, 12% visible
Pressure 29.65 in
Visibility 0.8 miles
Clouds
Dew Point 40.0 °F
Humidity 98%
Rainfall 0.38 in
Snow Depth Not available.
UV Not available.
Pollen .10 out of 12
Air Quality Not available.
Flu Activity Not available.
SPECI KLWM 250236Z 00000KT 3/4SM -RA BR VV003 04/04 A2965 RMK AO2 RAB0157E05B14 P0000 T00440044

More Conditions Fewer Conditions

Pressure 29.65 in
Visibility 0.8 miles
Clouds
Dew Point 40.0 °F
Humidity 98%
Rainfall 0.38 in
Snow Depth Not available.
UV Not available.
Pollen .10 out of 12
Air Quality Not available.
Flu Activity Not available.
SPECI KLWM 250236Z 00000KT 3/4SM -RA BR VV003 04/04 A2965 RMK AO2 RAB0157E05B14 P0000 T00440044

More Conditions Fewer Conditions

10-Day Weather Forecast

Almanac

Astronomy

Dec. 24, 2014 Rise Set
Actual Time
Civil Twilight
Nautical Twilight
Astronomical Twilight
Moon
Length of Visible Light
Length of Day
Tomorrow will be .
, % of the Moon is Illuminated

Today's Extremes

State Highs State Lows

Community

WunderPhotos

Upload Photos

1,780,215 photos uploaded!

WunderBlogs® & News

Nearby

Air Quality

  Air Quality AQ Index Pollutant
Not available.

Snow Depth

Station Depth Elevation

Earthquake Activity

City Distance Mag. Time & Date
Minimum magnitude displayed is 2.5.

Coastal Water Temperatures

Place Temperature

Nearby Weather Stations